createdAt,value
2023-05-12T00:00:19.120Z,14.50
2023-05-12T00:02:47.169Z,14.50
2023-05-12T00:05:14.180Z,14.50
2023-05-12T00:07:41.118Z,14.50
2023-05-12T00:10:08.399Z,14.50
2023-05-12T00:12:36.858Z,14.40
2023-05-12T00:15:04.075Z,14.50
2023-05-12T00:17:31.037Z,14.40
2023-05-12T00:19:57.965Z,14.40
2023-05-12T00:22:26.840Z,14.40
2023-05-12T00:24:53.821Z,14.50
2023-05-12T00:27:20.754Z,14.50
2023-05-12T00:29:47.716Z,14.40
2023-05-12T00:32:14.863Z,14.40
2023-05-12T00:34:42.406Z,14.50
2023-05-12T00:37:10.232Z,14.40
2023-05-12T00:39:38.065Z,14.40
2023-05-12T00:42:05.642Z,14.40
2023-05-12T00:44:32.640Z,14.40
2023-05-12T00:46:59.755Z,14.40
2023-05-12T00:49:27.578Z,14.50
2023-05-12T00:51:56.072Z,14.50
2023-05-12T00:54:23.338Z,14.40
2023-05-12T00:56:50.367Z,14.40
2023-05-12T00:59:17.638Z,14.40
2023-05-12T01:01:44.995Z,14.40
2023-05-12T01:04:12.682Z,14.40
2023-05-12T01:06:55.011Z,14.40
2023-05-12T01:09:22.125Z,14.40
2023-05-12T01:11:49.205Z,14.40
2023-05-12T01:14:17.502Z,14.40
2023-05-12T01:16:53.459Z,14.40
2023-05-12T01:19:49.437Z,14.40
2023-05-12T01:22:18.008Z,14.40
2023-05-12T01:24:52.879Z,14.30
2023-05-12T01:27:21.411Z,14.30
2023-05-12T01:29:49.174Z,14.30
2023-05-12T01:32:18.703Z,14.30
2023-05-12T01:34:46.630Z,14.40
2023-05-12T01:37:14.462Z,14.30
2023-05-12T01:39:41.749Z,14.30
2023-05-12T01:42:13.836Z,14.40
2023-05-12T01:44:40.857Z,14.40
2023-05-12T01:47:10.025Z,14.30
2023-05-12T01:49:38.603Z,14.30
2023-05-12T01:52:08.629Z,14.30
2023-05-12T01:54:36.201Z,14.30
2023-05-12T01:57:03.150Z,14.30
2023-05-12T01:59:30.253Z,14.40
2023-05-12T02:01:57.517Z,14.30
2023-05-12T02:04:29.883Z,14.30
2023-05-12T02:06:58.168Z,14.30
2023-05-12T02:09:25.107Z,14.30
2023-05-12T02:11:56.020Z,14.30
2023-05-12T02:14:23.000Z,14.30
2023-05-12T02:16:52.723Z,14.30
2023-05-12T02:22:10.283Z,14.30
2023-05-12T02:24:37.573Z,14.30
2023-05-12T02:27:04.913Z,14.30
2023-05-12T02:29:32.328Z,14.30
2023-05-12T02:31:59.826Z,14.20
2023-05-12T02:34:26.799Z,14.20
2023-05-12T02:36:55.725Z,14.20
2023-05-12T02:39:22.607Z,14.20
2023-05-12T02:41:49.460Z,14.20
2023-05-12T02:44:17.900Z,14.20
2023-05-12T02:46:44.786Z,14.20
2023-05-12T02:49:12.086Z,14.20
2023-05-12T02:51:39.396Z,14.20
2023-05-12T02:54:06.523Z,14.20
2023-05-12T02:56:34.122Z,14.20
2023-05-12T02:59:01.573Z,14.20
2023-05-12T03:01:28.485Z,14.10
2023-05-12T03:03:55.423Z,14.20
2023-05-12T03:06:22.585Z,14.20
2023-05-12T03:08:49.489Z,14.10
2023-05-12T03:11:16.387Z,14.20
2023-05-12T03:13:43.572Z,14.20
2023-05-12T03:16:10.483Z,14.10
2023-05-12T03:18:37.417Z,14.20
2023-05-12T03:21:06.534Z,14.20
2023-05-12T03:23:33.473Z,14.20
2023-05-12T03:26:00.422Z,14.20
2023-05-12T03:28:27.469Z,14.20
2023-05-12T03:30:54.543Z,14.20
2023-05-12T03:33:21.446Z,14.20
2023-05-12T03:35:49.816Z,14.20
2023-05-12T03:38:17.687Z,14.20
2023-05-12T03:40:44.618Z,14.20
2023-05-12T03:43:13.041Z,14.20
2023-05-12T03:45:40.018Z,14.20
2023-05-12T03:48:07.152Z,14.20
2023-05-12T03:50:34.116Z,14.20
2023-05-12T03:53:01.413Z,14.20
2023-05-12T03:55:28.246Z,14.20
2023-05-12T03:57:55.120Z,14.20
2023-05-12T04:00:22.383Z,14.30
2023-05-12T04:02:51.183Z,14.30
2023-05-12T04:05:18.177Z,14.30
2023-05-12T04:07:45.203Z,14.20
2023-05-12T04:10:12.157Z,14.30
2023-05-12T04:12:39.314Z,14.30
2023-05-12T04:15:08.396Z,14.30
2023-05-12T04:17:35.377Z,14.30
2023-05-12T04:20:02.368Z,14.30
2023-05-12T04:22:30.414Z,14.30
2023-05-12T04:24:57.270Z,14.30
2023-05-12T04:27:24.528Z,14.30
2023-05-12T04:29:51.686Z,14.30
2023-05-12T04:32:18.609Z,14.30
2023-05-12T04:34:46.191Z,14.30
2023-05-12T04:37:13.696Z,14.30
2023-05-12T04:39:46.749Z,14.30
2023-05-12T04:42:14.067Z,14.30
2023-05-12T04:44:40.981Z,14.30
2023-05-12T04:47:08.213Z,14.30
2023-05-12T04:49:35.797Z,14.30
2023-05-12T04:52:02.782Z,14.40
2023-05-12T04:54:29.797Z,14.40
2023-05-12T04:56:56.641Z,14.40
2023-05-12T04:59:28.659Z,14.30
2023-05-12T05:02:03.292Z,14.40
2023-05-12T05:04:30.589Z,14.40
2023-05-12T05:06:57.632Z,14.40
2023-05-12T05:09:25.266Z,14.40
2023-05-12T05:11:53.132Z,14.50
2023-05-12T05:14:21.456Z,14.40
2023-05-12T05:16:48.849Z,14.50
2023-05-12T05:19:23.025Z,14.50
2023-05-12T05:21:57.329Z,14.50
2023-05-12T05:24:24.551Z,14.50
2023-05-12T05:26:51.533Z,14.50
2023-05-12T05:29:18.978Z,14.50
2023-05-12T05:31:46.163Z,14.60
2023-05-12T05:34:14.360Z,14.60
2023-05-12T05:36:41.689Z,14.60
2023-05-12T05:39:10.476Z,14.60
2023-05-12T05:41:38.011Z,14.70
2023-05-12T05:44:06.043Z,14.70
2023-05-12T05:46:34.477Z,14.70
2023-05-12T05:49:01.961Z,14.80
2023-05-12T05:51:29.345Z,14.70
2023-05-12T05:53:56.233Z,14.80
2023-05-12T05:56:23.246Z,14.80
2023-05-12T05:58:51.382Z,14.80
2023-05-12T06:01:18.278Z,14.80
2023-05-12T06:03:45.546Z,14.80
2023-05-12T06:06:12.513Z,14.80
2023-05-12T06:08:39.477Z,14.80
2023-05-12T06:11:06.381Z,14.80
2023-05-12T06:13:33.489Z,14.80
2023-05-12T06:16:00.665Z,14.80
2023-05-12T06:18:27.719Z,15.00
2023-05-12T06:20:54.964Z,15.00
2023-05-12T06:23:22.202Z,15.00
2023-05-12T06:25:50.215Z,15.10
2023-05-12T06:28:23.920Z,15.20
2023-05-12T06:30:52.585Z,15.40
2023-05-12T06:33:19.500Z,15.60
2023-05-12T06:35:46.810Z,15.70
2023-05-12T06:38:13.711Z,15.70
2023-05-12T06:40:41.083Z,15.80
2023-05-12T06:43:08.268Z,15.70
2023-05-12T06:45:35.937Z,15.80
2023-05-12T06:48:05.558Z,15.90
2023-05-12T06:50:32.740Z,15.90
2023-05-12T06:52:59.918Z,16.00
2023-05-12T06:55:27.090Z,16.00
2023-05-12T06:57:56.044Z,16.10
2023-05-12T07:00:23.974Z,16.10
2023-05-12T07:02:51.117Z,16.20
2023-05-12T07:05:19.303Z,16.20
2023-05-12T07:07:46.779Z,16.30
2023-05-12T07:10:13.762Z,16.40
2023-05-12T07:12:40.875Z,16.50
2023-05-12T07:15:11.087Z,16.50
2023-05-12T07:17:38.345Z,16.60
2023-05-12T07:20:06.422Z,16.60
2023-05-12T07:22:33.501Z,16.70
2023-05-12T07:25:00.413Z,16.70
2023-05-12T07:27:27.625Z,16.80
2023-05-12T07:29:56.840Z,16.90
2023-05-12T07:32:27.356Z,16.90
2023-05-12T07:34:55.110Z,16.90
2023-05-12T07:37:22.553Z,16.90
2023-05-12T07:39:50.377Z,16.90
2023-05-12T07:42:20.115Z,17.00
2023-05-12T07:44:47.298Z,17.00
2023-05-12T07:47:14.633Z,16.90
2023-05-12T07:49:41.862Z,17.00
2023-05-12T07:52:08.902Z,16.90
2023-05-12T07:54:36.050Z,17.00
2023-05-12T07:57:03.294Z,17.00
2023-05-12T07:59:30.316Z,17.00
2023-05-12T08:01:57.599Z,17.00
2023-05-12T08:04:24.628Z,17.00
2023-05-12T08:06:51.531Z,17.00
2023-05-12T08:09:18.473Z,16.90
2023-05-12T08:11:47.551Z,16.90
2023-05-12T08:14:16.318Z,16.90
2023-05-12T08:16:46.549Z,16.90
2023-05-12T08:19:14.021Z,16.90
2023-05-12T08:21:40.959Z,16.90
2023-05-12T08:24:07.938Z,16.90
2023-05-12T08:26:34.909Z,16.90
2023-05-12T08:29:01.777Z,16.80
2023-05-12T08:31:28.668Z,16.80
2023-05-12T08:34:08.942Z,16.80
2023-05-12T08:36:38.371Z,16.80
2023-05-12T08:39:05.447Z,16.80
2023-05-12T08:41:35.428Z,16.70
2023-05-12T08:44:03.152Z,16.60
2023-05-12T08:46:31.647Z,16.60
2023-05-12T08:49:01.567Z,16.50
2023-05-12T08:51:31.637Z,16.50
2023-05-12T08:53:58.744Z,16.40
2023-05-12T08:58:57.633Z,16.20
2023-05-12T09:01:25.960Z,16.20
2023-05-12T09:03:56.107Z,16.20
2023-05-12T09:06:23.374Z,16.20
2023-05-12T09:08:51.247Z,16.20
2023-05-12T09:11:20.026Z,16.20
2023-05-12T09:14:03.210Z,16.10
2023-05-12T09:16:34.235Z,16.10
2023-05-12T09:19:03.528Z,16.10
2023-05-12T09:21:31.877Z,16.10
2023-05-12T09:24:00.985Z,16.10
2023-05-12T09:26:28.955Z,16.10
2023-05-12T09:29:08.614Z,16.10
2023-05-12T09:31:36.073Z,16.00
2023-05-12T09:34:10.316Z,16.00
2023-05-12T09:36:37.445Z,16.00
2023-05-12T09:39:06.867Z,16.00
2023-05-12T09:41:38.396Z,16.00
2023-05-12T09:44:06.848Z,16.10
2023-05-12T09:46:34.181Z,16.20
2023-05-12T09:49:03.318Z,16.20
2023-05-12T09:51:33.396Z,16.30
2023-05-12T09:54:00.867Z,16.30
2023-05-12T09:56:29.881Z,16.40
2023-05-12T09:58:57.805Z,16.50
2023-05-12T10:01:26.746Z,16.50
2023-05-12T10:03:58.173Z,16.60
2023-05-12T10:06:33.887Z,16.60
2023-05-12T10:09:21.255Z,16.70
2023-05-12T10:11:52.834Z,16.70
2023-05-12T10:14:22.850Z,16.70
2023-05-12T10:16:51.048Z,16.80
2023-05-12T10:19:19.894Z,16.80
2023-05-12T10:21:47.295Z,16.80
2023-05-12T10:24:17.763Z,16.80
2023-05-12T10:26:45.120Z,16.90
2023-05-12T10:29:13.136Z,16.90
2023-05-12T10:31:40.515Z,16.90
2023-05-12T10:34:07.422Z,17.00
2023-05-12T10:36:51.234Z,17.00
2023-05-12T10:39:18.350Z,17.00
2023-05-12T10:41:45.315Z,17.10
2023-05-12T10:44:12.769Z,17.10
2023-05-12T10:46:39.856Z,17.10
2023-05-12T10:49:06.732Z,17.10
2023-05-12T10:51:54.857Z,17.10
2023-05-12T10:54:26.020Z,17.20
2023-05-12T10:56:57.565Z,17.20
2023-05-12T10:59:26.009Z,17.30
2023-05-12T11:02:04.976Z,17.30
2023-05-12T11:04:55.459Z,17.30
2023-05-12T11:07:26.587Z,17.30
2023-05-12T11:09:59.381Z,17.60
2023-05-12T11:12:35.558Z,17.30
2023-05-12T11:15:04.608Z,17.40
2023-05-12T11:17:32.183Z,17.40
2023-05-12T11:20:00.926Z,17.30
2023-05-12T11:22:28.009Z,17.30
2023-05-12T11:24:55.012Z,17.40
2023-05-12T11:27:23.711Z,17.30
2023-05-12T11:30:03.026Z,17.30
2023-05-12T11:32:30.573Z,17.30
2023-05-12T11:35:17.855Z,17.40
2023-05-12T11:37:45.901Z,17.30
2023-05-12T11:40:14.791Z,17.30
2023-05-12T11:42:46.108Z,17.40
2023-05-12T11:45:34.231Z,17.30
2023-05-12T11:48:12.852Z,17.40
2023-05-12T11:50:41.396Z,17.50
2023-05-12T11:53:14.762Z,17.50
2023-05-12T11:55:52.956Z,17.50
2023-05-12T11:58:22.342Z,17.60
2023-05-12T12:00:49.869Z,17.70
2023-05-12T12:03:17.125Z,17.70
2023-05-12T12:05:45.850Z,17.70
2023-05-12T12:08:15.199Z,17.80
2023-05-12T12:10:46.405Z,17.80
2023-05-12T12:13:24.798Z,17.80
2023-05-12T12:15:52.964Z,17.80
2023-05-12T12:18:19.916Z,17.90
2023-05-12T12:20:47.219Z,17.90
2023-05-12T12:23:14.298Z,18.00
2023-05-12T12:25:41.196Z,18.00
2023-05-12T12:28:08.424Z,18.00
2023-05-12T12:30:35.262Z,18.00
2023-05-12T12:33:02.480Z,18.00
2023-05-12T12:35:29.374Z,18.00
2023-05-12T12:37:56.413Z,18.00
2023-05-12T12:40:23.418Z,18.10
2023-05-12T12:42:50.329Z,18.00
2023-05-12T12:45:19.329Z,18.10
2023-05-12T12:47:47.360Z,18.00
2023-05-12T12:50:14.392Z,18.00
2023-05-12T12:52:41.504Z,18.00
2023-05-12T12:55:08.787Z,18.00
2023-05-12T12:57:36.325Z,17.80
2023-05-12T13:00:04.817Z,18.00
2023-05-12T13:02:34.617Z,18.00
2023-05-12T13:05:06.133Z,18.00
2023-05-12T13:07:34.232Z,18.00
2023-05-12T13:10:01.108Z,18.00
2023-05-12T13:12:30.518Z,18.00
2023-05-12T13:14:57.774Z,17.90
2023-05-12T13:17:24.800Z,17.90
2023-05-12T13:19:52.824Z,18.00
2023-05-12T13:22:19.690Z,17.90
2023-05-12T13:24:54.412Z,18.00
2023-05-12T13:27:21.603Z,18.00
2023-05-12T13:29:48.609Z,18.00
2023-05-12T13:32:16.386Z,18.00
2023-05-12T13:34:43.307Z,17.60
2023-05-12T13:37:10.326Z,18.00
2023-05-12T13:39:37.342Z,18.00
2023-05-12T13:42:04.638Z,18.00
2023-05-12T13:44:31.567Z,18.00
2023-05-12T13:46:58.510Z,18.00
2023-05-12T13:49:25.330Z,18.00
2023-05-12T13:51:52.157Z,18.00
2023-05-12T13:54:19.394Z,18.00
2023-05-12T13:56:46.298Z,18.00
2023-05-12T13:59:13.470Z,17.90
2023-05-12T14:01:41.333Z,18.00
2023-05-12T14:04:08.381Z,17.90
2023-05-12T14:06:35.241Z,17.90
2023-05-12T14:09:06.051Z,17.90
2023-05-12T14:11:33.646Z,17.90
2023-05-12T14:14:01.011Z,17.90
2023-05-12T14:16:30.278Z,17.90
2023-05-12T14:18:57.324Z,17.90
2023-05-12T14:21:24.321Z,17.80
2023-05-12T14:23:51.896Z,17.80
2023-05-12T14:26:19.501Z,17.70
2023-05-12T14:28:46.686Z,17.80
2023-05-12T14:31:13.785Z,17.70
2023-05-12T14:33:41.169Z,17.70
2023-05-12T14:36:09.336Z,17.70
2023-05-12T14:38:36.602Z,17.80
2023-05-12T14:41:04.060Z,17.80
2023-05-12T14:43:31.056Z,17.80
2023-05-12T14:45:58.306Z,17.80
2023-05-12T14:48:28.051Z,17.70
2023-05-12T14:50:55.585Z,17.80
2023-05-12T14:53:23.688Z,17.70
2023-05-12T14:55:51.520Z,17.70
2023-05-12T14:58:18.633Z,17.60
2023-05-12T15:00:48.111Z,17.70
2023-05-12T15:03:15.124Z,17.60
2023-05-12T15:05:57.386Z,17.70
2023-05-12T15:08:34.945Z,17.60
2023-05-12T15:11:02.017Z,17.60
2023-05-12T15:13:29.019Z,17.60
2023-05-12T15:15:56.838Z,17.60
2023-05-12T15:18:27.108Z,17.60
2023-05-12T15:20:57.300Z,17.50
2023-05-12T15:23:26.175Z,17.50
2023-05-12T15:25:53.124Z,17.50
2023-05-12T15:28:21.019Z,17.50
2023-05-12T15:30:57.320Z,17.50
2023-05-12T15:33:25.344Z,17.40
2023-05-12T15:35:52.179Z,17.50
2023-05-12T15:38:19.337Z,17.40
2023-05-12T15:40:47.339Z,17.40
2023-05-12T15:43:14.464Z,17.40
2023-05-12T15:45:41.397Z,17.40
2023-05-12T15:48:09.704Z,17.30
2023-05-12T15:50:37.259Z,17.40
2023-05-12T15:53:07.510Z,17.30
2023-05-12T15:55:34.549Z,17.40
2023-05-12T15:58:01.653Z,17.30
2023-05-12T16:00:28.649Z,17.30
2023-05-12T16:02:55.972Z,17.30
2023-05-12T16:05:24.153Z,17.30
2023-05-12T16:07:51.147Z,17.30
2023-05-12T16:10:18.158Z,17.20
2023-05-12T16:12:46.053Z,17.20
2023-05-12T16:15:13.098Z,17.20
2023-05-12T16:17:49.466Z,17.20
2023-05-12T16:20:16.450Z,17.10
2023-05-12T16:22:46.400Z,17.10
2023-05-12T16:25:13.339Z,17.10
2023-05-12T16:27:40.752Z,17.10
2023-05-12T16:30:08.485Z,17.10
2023-05-12T16:32:35.547Z,17.10
2023-05-12T16:35:02.575Z,17.00
2023-05-12T16:37:29.645Z,17.00
2023-05-12T16:39:56.686Z,17.00
2023-05-12T16:42:23.638Z,17.00
2023-05-12T16:44:54.787Z,17.00
2023-05-12T16:47:22.330Z,16.60
2023-05-12T16:49:58.105Z,16.90
2023-05-12T16:52:26.210Z,16.90
2023-05-12T16:54:53.328Z,16.90
2023-05-12T16:57:21.041Z,16.80
2023-05-12T16:59:50.740Z,16.80
2023-05-12T17:02:17.804Z,16.80
2023-05-12T17:04:44.894Z,16.80
2023-05-12T17:07:12.014Z,16.70
2023-05-12T17:09:39.192Z,16.70
2023-05-12T17:12:06.938Z,16.80
2023-05-12T17:14:35.044Z,16.80
2023-05-12T17:17:02.510Z,16.80
2023-05-12T17:19:29.802Z,16.80
2023-05-12T17:21:56.999Z,16.70
2023-05-12T17:24:23.986Z,16.70
2023-05-12T17:31:30.532Z,16.60
2023-05-12T17:34:22.778Z,16.60
2023-05-12T17:36:55.231Z,16.50
2023-05-12T17:39:40.796Z,16.50
2023-05-12T17:42:11.187Z,16.40
2023-05-12T17:44:38.441Z,16.50
2023-05-12T17:47:05.902Z,16.40
2023-05-12T17:50:51.364Z,16.40
2023-05-12T17:53:43.949Z,16.40
2023-05-12T17:56:11.667Z,16.30
2023-05-12T17:58:55.735Z,16.30
2023-05-12T18:01:38.716Z,16.20
2023-05-12T18:04:11.568Z,16.20
2023-05-12T18:06:50.678Z,16.20
2023-05-12T18:09:18.621Z,16.20
2023-05-12T18:11:49.884Z,16.20
2023-05-12T18:14:25.213Z,16.10
2023-05-12T18:16:52.371Z,16.10
2023-05-12T18:19:28.914Z,16.10
2023-05-12T18:22:06.835Z,16.00
2023-05-12T18:24:33.964Z,16.10
2023-05-12T18:27:01.328Z,16.00
2023-05-12T18:29:35.848Z,16.00
2023-05-12T18:33:02.551Z,16.00
2023-05-12T18:38:53.926Z,15.90
2023-05-12T18:41:37.733Z,15.90
2023-05-12T18:44:08.947Z,15.90
2023-05-12T18:46:47.797Z,15.90
2023-05-12T18:49:23.717Z,15.90
2023-05-12T18:51:55.582Z,15.90
2023-05-12T18:54:30.734Z,15.90
2023-05-12T18:56:58.258Z,15.90
2023-05-12T18:59:30.641Z,15.90
2023-05-12T19:02:12.482Z,15.80
2023-05-12T19:05:04.556Z,16.10
2023-05-12T19:07:32.247Z,15.80
2023-05-12T19:09:59.567Z,15.80
2023-05-12T19:12:37.180Z,15.70
2023-05-12T19:15:32.289Z,15.70
2023-05-12T19:17:59.570Z,15.70
2023-05-12T19:20:32.688Z,15.70
2023-05-12T19:23:00.273Z,15.60
2023-05-12T19:25:27.526Z,15.70
2023-05-12T19:27:57.718Z,15.60
2023-05-12T19:30:29.331Z,15.60
2023-05-12T19:33:16.614Z,15.60
2023-05-12T19:35:45.413Z,15.60
2023-05-12T19:38:15.842Z,15.60
2023-05-12T19:40:45.968Z,15.60
2023-05-12T19:43:18.194Z,15.60
2023-05-12T19:45:55.668Z,15.60
2023-05-12T19:48:22.777Z,15.60
2023-05-12T19:50:49.905Z,15.60
2023-05-12T20:01:28.517Z,15.50
2023-05-12T20:04:06.386Z,15.60
2023-05-12T20:06:33.613Z,15.50
2023-05-12T20:09:01.238Z,15.40
2023-05-12T20:11:34.529Z,15.40
2023-05-12T20:14:04.529Z,15.50
2023-05-12T20:16:33.872Z,15.40
2023-05-12T20:19:05.431Z,15.40
2023-05-12T20:21:37.540Z,15.40
2023-05-12T20:24:05.126Z,15.40
2023-05-12T20:26:35.732Z,15.40
2023-05-12T20:29:02.689Z,15.40
2023-05-12T20:31:29.949Z,15.40
2023-05-12T20:33:57.274Z,15.40
2023-05-12T20:36:24.297Z,15.40
2023-05-12T20:38:51.194Z,15.40
2023-05-12T20:41:18.857Z,15.40
2023-05-12T20:43:46.150Z,15.40
2023-05-12T20:46:13.495Z,15.40
2023-05-12T20:48:40.710Z,15.40
2023-05-12T20:51:11.903Z,15.40
2023-05-12T20:53:39.400Z,15.30
2023-05-12T20:56:10.641Z,15.30
2023-05-12T20:58:38.018Z,15.30
2023-05-12T21:01:05.180Z,15.30
2023-05-12T21:03:33.868Z,15.30
2023-05-12T21:06:01.282Z,15.40
2023-05-12T21:08:30.866Z,15.30
2023-05-12T21:10:59.537Z,15.30
2023-05-12T21:13:27.430Z,15.30
2023-05-12T21:15:54.434Z,15.30
2023-05-12T21:18:24.607Z,15.20
2023-05-12T21:20:59.255Z,15.20
2023-05-12T21:23:26.388Z,15.10
2023-05-12T21:25:54.052Z,15.20
2023-05-12T21:28:24.069Z,15.10
2023-05-12T21:30:51.520Z,15.10
2023-05-12T21:33:20.975Z,15.10
2023-05-12T21:35:50.152Z,15.10
2023-05-12T21:38:17.634Z,15.00
2023-05-12T21:40:48.948Z,15.10
2023-05-12T21:43:16.069Z,15.10
2023-05-12T21:45:43.717Z,15.00
2023-05-12T21:48:11.331Z,15.00
2023-05-12T21:50:38.271Z,15.00
2023-05-12T21:53:05.321Z,15.00
2023-05-12T21:55:33.583Z,15.00
2023-05-12T21:58:00.437Z,15.00
2023-05-12T22:00:27.576Z,14.90
2023-05-12T22:02:54.429Z,14.90
2023-05-12T22:05:21.377Z,14.90
2023-05-12T22:07:48.278Z,15.00
2023-05-12T22:10:15.150Z,15.00
2023-05-12T22:12:41.917Z,14.90
2023-05-12T22:15:09.249Z,14.90
2023-05-12T22:17:36.158Z,14.80
2023-05-12T22:20:04.090Z,14.80
2023-05-12T22:22:30.947Z,14.80
2023-05-12T22:24:58.437Z,14.80
2023-05-12T22:27:25.250Z,14.80
2023-05-12T22:29:52.185Z,14.80
2023-05-12T22:32:19.019Z,14.80
2023-05-12T22:34:45.966Z,14.80
2023-05-12T22:37:12.855Z,14.80
2023-05-12T22:39:39.885Z,14.80
2023-05-12T22:42:06.923Z,14.80
2023-05-12T22:44:33.955Z,14.80
2023-05-12T22:47:01.048Z,14.80
2023-05-12T22:49:27.885Z,14.70
2023-05-12T22:51:54.831Z,14.70
2023-05-12T22:54:21.660Z,14.80
2023-05-12T22:56:48.474Z,14.70
2023-05-12T22:59:15.366Z,14.70
2023-05-12T23:01:42.213Z,14.70
2023-05-12T23:04:09.090Z,14.70
2023-05-12T23:06:36.081Z,14.70
2023-05-12T23:09:03.130Z,14.70
2023-05-12T23:11:29.977Z,14.70
2023-05-12T23:13:57.212Z,14.70
2023-05-12T23:16:24.101Z,14.70
2023-05-12T23:18:51.049Z,14.70
2023-05-12T23:21:18.015Z,14.70
2023-05-12T23:23:45.025Z,14.70
2023-05-12T23:26:12.101Z,14.70
2023-05-12T23:28:39.131Z,14.70
2023-05-12T23:31:06.096Z,14.70
2023-05-12T23:33:33.057Z,14.70
2023-05-12T23:36:00.126Z,14.70
2023-05-12T23:38:27.060Z,14.70
2023-05-12T23:40:53.890Z,14.70
2023-05-12T23:43:21.199Z,14.70
2023-05-12T23:45:48.187Z,14.70
2023-05-12T23:48:15.234Z,14.80
2023-05-12T23:50:42.197Z,14.70
2023-05-12T23:53:09.013Z,14.80
2023-05-12T23:55:37.560Z,14.70
2023-05-12T23:58:04.685Z,14.70
